createdAt,value
2023-04-17T00:00:09.533Z,336
2023-04-17T00:00:40.723Z,323
2023-04-17T00:01:12.837Z,288
2023-04-17T00:01:44.628Z,299
2023-04-17T00:02:16.655Z,250
2023-04-17T00:02:48.537Z,219
2023-04-17T00:03:21.150Z,221
2023-04-17T00:03:52.578Z,227
2023-04-17T00:04:24.560Z,226
2023-04-17T00:04:56.859Z,231
2023-04-17T00:05:28.919Z,236
2023-04-17T00:06:00.424Z,208
2023-04-17T00:06:32.649Z,242
2023-04-17T00:07:04.860Z,262
2023-04-17T00:07:36.314Z,252
2023-04-17T00:08:08.313Z,218
2023-04-17T00:08:24.273Z,195
2023-04-17T00:08:56.448Z,220
2023-04-17T00:09:40.333Z,223
2023-04-17T00:10:12.743Z,231
2023-04-17T00:10:46.994Z,231
2023-04-17T00:11:18.045Z,204
2023-04-17T00:11:48.139Z,248
2023-04-17T00:12:20.300Z,137
2023-04-17T00:12:52.065Z,107
2023-04-17T00:13:08.192Z,90
2023-04-17T00:13:52.125Z,92
2023-04-17T00:14:24.015Z,99
2023-04-17T00:14:56.284Z,108
2023-04-17T00:15:28.197Z,139
2023-04-17T00:16:00.090Z,206
2023-04-17T00:16:32.267Z,232
2023-04-17T00:17:04.592Z,236
2023-04-17T00:17:35.931Z,236
2023-04-17T00:18:07.993Z,211
2023-04-17T00:18:39.889Z,213
2023-04-17T00:19:12.204Z,190
2023-04-17T00:19:43.835Z,240
2023-04-17T00:20:16.313Z,225
2023-04-17T00:20:47.950Z,204
2023-04-17T00:21:20.156Z,220
2023-04-17T00:21:51.623Z,223
2023-04-17T00:22:23.758Z,223
2023-04-17T00:22:55.730Z,216
2023-04-17T00:23:27.764Z,242
2023-04-17T00:23:59.661Z,251
2023-04-17T00:24:31.916Z,243
2023-04-17T00:25:04.363Z,128
2023-04-17T00:25:35.652Z,130
2023-04-17T00:26:07.557Z,128
2023-04-17T00:26:23.684Z,148
2023-04-17T00:26:55.648Z,157
2023-04-17T00:27:39.450Z,203
2023-04-17T00:28:11.750Z,224
2023-04-17T00:28:43.459Z,183
2023-04-17T00:29:15.333Z,127
2023-04-17T00:29:47.477Z,128
2023-04-17T00:30:20.972Z,140
2023-04-17T00:30:51.257Z,258
2023-04-17T00:31:07.442Z,250
2023-04-17T00:31:51.432Z,251
2023-04-17T00:32:07.617Z,240
2023-04-17T00:32:51.288Z,164
2023-04-17T00:33:23.310Z,165
2023-04-17T00:33:55.292Z,208
2023-04-17T00:34:27.245Z,231
2023-04-17T00:34:59.296Z,234
2023-04-17T00:35:31.619Z,229
2023-04-17T00:36:03.608Z,225
2023-04-17T00:36:35.211Z,227
2023-04-17T00:37:07.236Z,227
2023-04-17T00:37:39.102Z,227
2023-04-17T00:38:11.022Z,227
2023-04-17T00:38:43.091Z,229
2023-04-17T00:39:15.119Z,238
2023-04-17T00:39:47.271Z,242
2023-04-17T00:40:19.261Z,224
2023-04-17T00:40:51.025Z,191
2023-04-17T00:41:23.114Z,129
2023-04-17T00:41:54.872Z,64
2023-04-17T00:42:27.291Z,88
2023-04-17T00:42:58.956Z,88
2023-04-17T00:43:30.942Z,88
2023-04-17T00:44:03.887Z,88
2023-04-17T00:44:34.780Z,88
2023-04-17T00:45:07.294Z,88
2023-04-17T00:45:38.831Z,85
2023-04-17T00:46:10.811Z,112
2023-04-17T00:46:42.694Z,118
2023-04-17T00:47:14.725Z,116
2023-04-17T00:47:46.824Z,116
2023-04-17T00:48:18.651Z,116
2023-04-17T00:48:50.712Z,117
2023-04-17T00:49:06.669Z,223
2023-04-17T00:49:50.661Z,240
2023-04-17T00:50:22.815Z,240
2023-04-17T00:50:54.504Z,240
2023-04-17T00:51:26.488Z,240
2023-04-17T00:51:58.654Z,240
2023-04-17T00:52:30.501Z,245
2023-04-17T00:53:03.510Z,245
2023-04-17T00:53:34.292Z,245
2023-04-17T00:54:06.283Z,242
2023-04-17T00:54:38.355Z,240
2023-04-17T00:55:10.782Z,229
2023-04-17T00:55:42.446Z,247
2023-04-17T00:56:14.323Z,246
2023-04-17T00:56:46.351Z,246
2023-04-17T00:57:18.347Z,244
2023-04-17T00:57:50.316Z,246
2023-04-17T00:58:22.185Z,246
2023-04-17T00:58:54.225Z,246
2023-04-17T00:59:26.242Z,246
2023-04-17T00:59:58.030Z,242
2023-04-17T01:00:30.699Z,241
2023-04-17T01:01:03.009Z,234
2023-04-17T01:01:34.122Z,235
2023-04-17T01:02:06.200Z,235
2023-04-17T01:02:22.293Z,223
2023-04-17T01:02:54.224Z,239
2023-04-17T01:03:38.228Z,221
2023-04-17T01:04:10.023Z,222
2023-04-17T01:04:42.149Z,223
2023-04-17T01:05:14.391Z,223
2023-04-17T01:05:45.887Z,213
2023-04-17T01:06:17.999Z,244
2023-04-17T01:06:49.880Z,245
2023-04-17T01:07:06.014Z,244
2023-04-17T01:07:50.026Z,208
2023-04-17T01:08:21.862Z,208
2023-04-17T01:08:53.642Z,208
2023-04-17T01:09:25.804Z,208
2023-04-17T01:09:57.658Z,208
2023-04-17T01:10:30.189Z,208
2023-04-17T01:11:02.639Z,208
2023-04-17T01:11:33.612Z,208
2023-04-17T01:12:05.719Z,208
2023-04-17T01:12:37.677Z,72
2023-04-17T01:13:09.656Z,72
2023-04-17T01:13:41.705Z,90
2023-04-17T01:14:13.753Z,129
2023-04-17T01:14:45.663Z,121
2023-04-17T01:15:18.829Z,118
2023-04-17T01:15:49.336Z,119
2023-04-17T01:16:05.620Z,115
2023-04-17T01:16:38.782Z,126
2023-04-17T01:16:53.552Z,143
2023-04-17T01:17:25.546Z,147
2023-04-17T01:17:57.338Z,133
2023-04-17T01:18:13.500Z,115
2023-04-17T01:18:45.332Z,110
2023-04-17T01:19:29.610Z,99
2023-04-17T01:20:02.517Z,105
2023-04-17T01:20:33.559Z,114
2023-04-17T01:21:05.477Z,113
2023-04-17T01:21:37.280Z,112
2023-04-17T01:22:09.456Z,155
2023-04-17T01:22:41.176Z,154
2023-04-17T01:23:13.180Z,154
2023-04-17T01:23:45.320Z,154
2023-04-17T01:24:17.285Z,154
2023-04-17T01:24:49.181Z,154
2023-04-17T01:25:05.802Z,154
2023-04-17T01:25:49.044Z,154
2023-04-17T01:26:21.382Z,154
2023-04-17T01:26:53.103Z,154
2023-04-17T01:27:24.793Z,154
2023-04-17T01:27:57.120Z,154
2023-04-17T01:28:29.080Z,154
2023-04-17T01:29:00.933Z,154
2023-04-17T01:29:32.993Z,172
2023-04-17T01:30:06.645Z,226
2023-04-17T01:30:36.931Z,249
2023-04-17T01:31:09.054Z,218
2023-04-17T01:31:40.758Z,239
2023-04-17T01:32:12.719Z,239
2023-04-17T01:32:44.856Z,206
2023-04-17T01:33:16.855Z,237
2023-04-17T01:33:48.668Z,250
2023-04-17T01:34:20.722Z,207
2023-04-17T01:34:52.762Z,212
2023-04-17T01:35:25.100Z,213
2023-04-17T01:35:56.582Z,223
2023-04-17T01:36:28.626Z,117
2023-04-17T01:37:00.835Z,147
2023-04-17T01:37:32.746Z,165
2023-04-17T01:38:04.630Z,164
2023-04-17T01:38:20.649Z,164
2023-04-17T01:38:52.637Z,164
2023-04-17T01:39:36.531Z,164
2023-04-17T01:40:08.911Z,164
2023-04-17T01:40:40.318Z,164
2023-04-17T01:41:12.585Z,120
2023-04-17T01:41:44.510Z,160
2023-04-17T01:42:16.428Z,160
2023-04-17T01:42:48.273Z,161
2023-04-17T01:43:04.732Z,160
2023-04-17T01:43:48.342Z,155
2023-04-17T01:44:20.359Z,228
2023-04-17T01:44:52.340Z,227
2023-04-17T01:45:24.582Z,232
2023-04-17T01:45:56.261Z,196
2023-04-17T01:46:28.346Z,208
2023-04-17T01:47:00.352Z,215
2023-04-17T01:47:32.292Z,213
2023-04-17T01:48:04.227Z,162
2023-04-17T01:48:36.226Z,164
2023-04-17T01:49:08.168Z,181
2023-04-17T01:49:39.920Z,185
2023-04-17T01:50:12.370Z,185
2023-04-17T01:50:44.136Z,186
2023-04-17T01:51:16.024Z,181
2023-04-17T01:51:48.018Z,181
2023-04-17T01:52:19.884Z,181
2023-04-17T01:52:36.123Z,181
2023-04-17T01:53:20.047Z,181
2023-04-17T01:53:51.917Z,181
2023-04-17T01:54:23.770Z,237
2023-04-17T01:54:55.813Z,242
2023-04-17T01:55:28.222Z,227
2023-04-17T01:56:00.114Z,241
2023-04-17T01:56:31.930Z,225
2023-04-17T01:57:04.453Z,220
2023-04-17T01:57:35.852Z,99
2023-04-17T01:58:07.771Z,105
2023-04-17T01:58:40.067Z,115
2023-04-17T01:59:12.084Z,132
2023-04-17T01:59:43.777Z,147
2023-04-17T02:00:17.718Z,148
2023-04-17T02:00:47.620Z,148
2023-04-17T02:01:19.554Z,147
2023-04-17T02:01:35.811Z,135
2023-04-17T02:02:07.474Z,108
2023-04-17T02:02:51.920Z,124
2023-04-17T02:03:23.722Z,134
2023-04-17T02:03:55.509Z,154
2023-04-17T02:04:27.689Z,125
2023-04-17T02:04:59.655Z,125
2023-04-17T02:05:31.539Z,145
2023-04-17T02:06:03.954Z,147
2023-04-17T02:06:35.590Z,145
2023-04-17T02:07:07.333Z,145
2023-04-17T02:07:39.181Z,145
2023-04-17T02:08:11.406Z,147
2023-04-17T02:08:43.402Z,153
2023-04-17T02:09:15.421Z,152
2023-04-17T02:09:47.257Z,153
2023-04-17T02:10:04.195Z,153
2023-04-17T02:10:35.358Z,153
2023-04-17T02:11:19.166Z,152
2023-04-17T02:11:51.274Z,153
2023-04-17T02:12:23.117Z,153
2023-04-17T02:12:55.028Z,153
2023-04-17T02:13:27.271Z,153
2023-04-17T02:13:59.330Z,153
2023-04-17T02:14:31.111Z,153
2023-04-17T02:15:06.132Z,153
2023-04-17T02:15:35.168Z,153
2023-04-17T02:16:07.026Z,153
2023-04-17T02:16:38.843Z,152
2023-04-17T02:17:10.919Z,157
2023-04-17T02:17:43.118Z,188
2023-04-17T02:18:15.014Z,244
2023-04-17T02:18:46.816Z,215
2023-04-17T02:19:03.761Z,215
2023-04-17T02:19:46.832Z,216
2023-04-17T02:20:19.151Z,218
2023-04-17T02:20:50.892Z,211
2023-04-17T02:21:22.630Z,214
2023-04-17T02:21:54.730Z,227
2023-04-17T02:22:26.844Z,231
2023-04-17T02:22:58.812Z,207
2023-04-17T02:23:30.746Z,209
2023-04-17T02:24:03.292Z,212
2023-04-17T02:24:34.656Z,174
2023-04-17T02:25:06.698Z,187
2023-04-17T02:25:38.513Z,203
2023-04-17T02:26:10.618Z,169
2023-04-17T02:26:42.706Z,182
2023-04-17T02:27:14.734Z,163
2023-04-17T02:27:46.367Z,154
2023-04-17T02:28:03.570Z,154
2023-04-17T02:28:34.454Z,155
2023-04-17T02:28:50.568Z,155
2023-04-17T02:29:22.178Z,155
2023-04-17T02:29:54.358Z,155
2023-04-17T02:30:26.908Z,155
2023-04-17T02:30:58.368Z,155
2023-04-17T02:31:30.594Z,155
2023-04-17T02:32:03.242Z,155
2023-04-17T02:32:18.419Z,154
2023-04-17T02:32:50.231Z,154
2023-04-17T02:33:34.210Z,154
2023-04-17T02:34:06.169Z,154
2023-04-17T02:34:38.012Z,155
2023-04-17T02:35:10.499Z,155
2023-04-17T02:35:42.469Z,155
2023-04-17T02:36:14.278Z,167
2023-04-17T02:36:46.075Z,167
2023-04-17T02:37:03.342Z,167
2023-04-17T02:37:46.082Z,167
2023-04-17T02:38:18.202Z,167
2023-04-17T02:38:49.837Z,167
2023-04-17T02:39:22.155Z,167
2023-04-17T02:39:53.977Z,90
2023-04-17T02:40:26.290Z,101
2023-04-17T02:40:58.248Z,127
2023-04-17T02:41:29.964Z,131
2023-04-17T02:42:02.723Z,247
2023-04-17T02:42:34.002Z,224
2023-04-17T02:43:05.779Z,141
2023-04-17T02:43:37.733Z,141
2023-04-17T02:44:09.836Z,169
2023-04-17T02:44:41.913Z,161
2023-04-17T02:45:14.812Z,228
2023-04-17T02:45:45.838Z,137
2023-04-17T02:46:17.751Z,96
2023-04-17T02:46:49.761Z,144
2023-04-17T02:47:21.999Z,175
2023-04-17T02:47:53.736Z,141
2023-04-17T02:48:25.660Z,171
2023-04-17T02:48:57.700Z,169
2023-04-17T02:49:29.794Z,252
2023-04-17T02:50:02.793Z,217
2023-04-17T02:50:17.725Z,209
2023-04-17T02:50:49.768Z,202
2023-04-17T02:51:33.779Z,224
2023-04-17T02:52:05.606Z,233
2023-04-17T02:52:37.463Z,153
2023-04-17T02:53:09.407Z,188
2023-04-17T02:53:41.590Z,208
2023-04-17T02:54:13.298Z,117
2023-04-17T02:54:45.450Z,115
2023-04-17T02:55:02.268Z,93
2023-04-17T02:55:45.687Z,114
2023-04-17T02:56:17.458Z,121
2023-04-17T02:56:49.200Z,127
2023-04-17T02:57:21.827Z,156
2023-04-17T02:57:53.213Z,256
2023-04-17T02:58:25.399Z,257
2023-04-17T02:58:57.133Z,240
2023-04-17T02:59:29.117Z,223
2023-04-17T03:00:04.119Z,200
2023-04-17T03:00:33.351Z,205
2023-04-17T03:01:05.276Z,204
2023-04-17T03:01:37.073Z,72
2023-04-17T03:02:09.046Z,112
2023-04-17T03:02:41.393Z,154
2023-04-17T03:03:13.194Z,155
2023-04-17T03:03:45.413Z,155
2023-04-17T03:04:17.118Z,155
2023-04-17T03:04:49.207Z,243
2023-04-17T03:05:23.805Z,227
2023-04-17T03:05:52.864Z,241
2023-04-17T03:06:24.927Z,219
2023-04-17T03:06:56.973Z,199
2023-04-17T03:07:28.893Z,117
2023-04-17T03:08:01.203Z,129
2023-04-17T03:08:33.204Z,154
2023-04-17T03:09:05.036Z,143
2023-04-17T03:09:36.824Z,90
2023-04-17T03:10:08.924Z,228
2023-04-17T03:10:40.846Z,248
2023-04-17T03:11:12.765Z,194
2023-04-17T03:11:44.877Z,255
2023-04-17T03:12:16.676Z,241
2023-04-17T03:12:32.798Z,221
2023-04-17T03:13:04.966Z,213
2023-04-17T03:13:48.602Z,197
2023-04-17T03:14:20.547Z,152
2023-04-17T03:14:52.722Z,164
2023-04-17T03:15:24.809Z,180
2023-04-17T03:15:56.526Z,174
2023-04-17T03:16:28.714Z,174
2023-04-17T03:17:00.495Z,174
2023-04-17T03:17:16.624Z,171
2023-04-17T03:18:02.040Z,128
2023-04-17T03:18:32.535Z,127
2023-04-17T03:19:04.798Z,109
2023-04-17T03:19:36.367Z,138
2023-04-17T03:20:08.483Z,153
2023-04-17T03:20:40.392Z,154
2023-04-17T03:21:12.502Z,153
2023-04-17T03:21:44.157Z,146
2023-04-17T03:22:00.754Z,144
2023-04-17T03:22:32.175Z,143
2023-04-17T03:22:48.288Z,148
2023-04-17T03:23:20.075Z,141
2023-04-17T03:23:52.335Z,138
2023-04-17T03:24:24.130Z,144
2023-04-17T03:24:56.072Z,130
2023-04-17T03:25:28.259Z,161
2023-04-17T03:26:00.007Z,251
2023-04-17T03:26:16.147Z,159
2023-04-17T03:26:47.998Z,102
2023-04-17T03:27:32.238Z,105
2023-04-17T03:28:04.555Z,94
2023-04-17T03:28:35.941Z,144
2023-04-17T03:29:07.938Z,162
2023-04-17T03:29:40.024Z,162
2023-04-17T03:30:13.096Z,143
2023-04-17T03:30:44.012Z,121
2023-04-17T03:31:00.392Z,115
2023-04-17T03:31:44.008Z,77
2023-04-17T03:32:16.172Z,103
2023-04-17T03:32:47.772Z,90
2023-04-17T03:33:19.745Z,78
2023-04-17T03:33:52.097Z,69
2023-04-17T03:34:23.723Z,104
2023-04-17T03:34:55.648Z,131
2023-04-17T03:35:28.035Z,158
2023-04-17T03:35:59.744Z,177
2023-04-17T03:36:31.974Z,137
2023-04-17T03:37:04.252Z,137
2023-04-17T03:37:35.549Z,137
2023-04-17T03:38:07.747Z,152
2023-04-17T03:38:39.718Z,158
2023-04-17T03:39:12.079Z,151
2023-04-17T03:39:43.595Z,162
2023-04-17T03:40:15.792Z,171
2023-04-17T03:40:47.486Z,180
2023-04-17T03:41:19.346Z,122
2023-04-17T03:41:51.613Z,118
2023-04-17T03:42:23.291Z,126
2023-04-17T03:42:55.324Z,126
2023-04-17T03:43:27.305Z,66
2023-04-17T03:43:59.322Z,76
2023-04-17T03:44:31.676Z,158
2023-04-17T03:45:06.254Z,158
2023-04-17T03:45:35.178Z,158
2023-04-17T03:46:07.325Z,158
2023-04-17T03:46:39.185Z,158
2023-04-17T03:47:11.389Z,158
2023-04-17T03:47:43.241Z,115
2023-04-17T03:47:59.362Z,73
2023-04-17T03:48:43.137Z,58
2023-04-17T03:48:59.269Z,58
2023-04-17T03:49:43.169Z,65
2023-04-17T03:50:15.384Z,59
2023-04-17T03:50:46.971Z,230
2023-04-17T03:51:18.929Z,172
2023-04-17T03:51:51.186Z,215
2023-04-17T03:52:22.994Z,181
2023-04-17T03:52:54.853Z,169
2023-04-17T03:53:26.758Z,177
2023-04-17T03:53:58.961Z,170
2023-04-17T03:54:31.377Z,214
2023-04-17T03:55:03.975Z,197
2023-04-17T03:55:34.841Z,219
2023-04-17T03:56:06.705Z,195
2023-04-17T03:56:38.697Z,193
2023-04-17T03:57:10.744Z,172
2023-04-17T03:57:42.720Z,207
2023-04-17T03:58:14.668Z,191
2023-04-17T03:58:46.825Z,193
2023-04-17T03:59:18.636Z,213
2023-04-17T03:59:50.535Z,211
2023-04-17T04:00:24.234Z,199
2023-04-17T04:00:54.604Z,207
2023-04-17T04:01:26.410Z,172
2023-04-17T04:01:58.790Z,182
2023-04-17T04:02:14.751Z,186
2023-04-17T04:02:46.830Z,218
2023-04-17T04:03:31.269Z,198
2023-04-17T04:04:03.600Z,205
2023-04-17T04:04:34.579Z,206
2023-04-17T04:05:06.738Z,204
2023-04-17T04:05:38.416Z,190
2023-04-17T04:06:10.462Z,187
2023-04-17T04:06:42.548Z,183
2023-04-17T04:07:14.507Z,177
2023-04-17T04:07:46.437Z,182
2023-04-17T04:08:18.253Z,160
2023-04-17T04:08:50.233Z,243
2023-04-17T04:09:22.470Z,217
2023-04-17T04:09:54.365Z,150
2023-04-17T04:10:26.388Z,150
2023-04-17T04:10:58.098Z,151
2023-04-17T04:11:14.505Z,163
2023-04-17T04:11:58.207Z,163
2023-04-17T04:12:30.184Z,199
2023-04-17T04:13:02.709Z,229
2023-04-17T04:13:34.085Z,219
2023-04-17T04:14:06.041Z,222
2023-04-17T04:14:39.823Z,222
2023-04-17T04:15:11.337Z,222
2023-04-17T04:15:41.885Z,219
2023-04-17T04:15:58.419Z,219
2023-04-17T04:16:31.574Z,164
2023-04-17T04:16:46.014Z,140
2023-04-17T04:17:17.853Z,158
2023-04-17T04:17:49.951Z,158
2023-04-17T04:18:05.919Z,158
2023-04-17T04:18:38.131Z,136
2023-04-17T04:19:22.166Z,158
2023-04-17T04:19:53.672Z,158
2023-04-17T04:20:26.045Z,158
2023-04-17T04:20:57.902Z,156
2023-04-17T04:21:29.759Z,156
2023-04-17T04:22:02.652Z,158
2023-04-17T04:22:33.923Z,158
2023-04-17T04:23:05.766Z,158
2023-04-17T04:23:39.863Z,158
2023-04-17T04:24:09.487Z,158
2023-04-17T04:24:41.721Z,158
2023-04-17T04:24:57.897Z,158
2023-04-17T04:25:41.846Z,133
2023-04-17T04:26:13.601Z,161
2023-04-17T04:26:45.405Z,126
2023-04-17T04:27:18.184Z,127
2023-04-17T04:27:49.464Z,181
2023-04-17T04:28:21.553Z,178
2023-04-17T04:28:53.541Z,189
2023-04-17T04:29:25.336Z,197
2023-04-17T04:29:57.453Z,134
2023-04-17T04:30:29.826Z,133
2023-04-17T04:31:01.818Z,161
2023-04-17T04:31:33.244Z,158
2023-04-17T04:32:05.547Z,186
2023-04-17T04:32:37.332Z,266
2023-04-17T04:33:09.155Z,181
2023-04-17T04:33:41.407Z,166
2023-04-17T04:33:57.283Z,167
2023-04-17T04:34:29.222Z,167
2023-04-17T04:34:45.177Z,165
2023-04-17T04:35:19.610Z,165
2023-04-17T04:35:49.074Z,165
2023-04-17T04:36:21.107Z,194
2023-04-17T04:36:53.146Z,201
2023-04-17T04:37:25.138Z,202
2023-04-17T04:37:56.945Z,242
2023-04-17T04:38:29.065Z,242
2023-04-17T04:39:01.502Z,221
2023-04-17T04:39:33.148Z,205
2023-04-17T04:40:05.457Z,217
2023-04-17T04:40:36.952Z,193
2023-04-17T04:41:08.823Z,195
2023-04-17T04:41:41.102Z,194
2023-04-17T04:42:12.896Z,191
2023-04-17T04:42:44.792Z,188
2023-04-17T04:43:16.884Z,158
2023-04-17T04:43:48.770Z,147
2023-04-17T04:44:20.757Z,147
2023-04-17T04:44:52.781Z,147
2023-04-17T04:45:25.277Z,147
2023-04-17T04:45:56.869Z,147
2023-04-17T04:46:13.022Z,147
2023-04-17T04:46:57.018Z,147
2023-04-17T04:47:28.944Z,147
2023-04-17T04:48:01.593Z,147
2023-04-17T04:48:32.882Z,147
2023-04-17T04:49:05.069Z,147
2023-04-17T04:49:37.029Z,148
2023-04-17T04:50:09.018Z,148
2023-04-17T04:50:40.841Z,149
2023-04-17T04:50:57.106Z,149
2023-04-17T04:51:28.804Z,149
2023-04-17T04:52:13.303Z,151
2023-04-17T04:52:44.733Z,202
2023-04-17T04:53:16.668Z,217
2023-04-17T04:53:48.511Z,217
2023-04-17T04:54:20.641Z,217
2023-04-17T04:54:52.639Z,217
2023-04-17T04:55:26.580Z,217
2023-04-17T04:55:56.550Z,217
2023-04-17T04:56:12.628Z,217
2023-04-17T04:56:44.542Z,216
2023-04-17T04:57:28.656Z,215
2023-04-17T04:58:00.365Z,223
2023-04-17T04:58:16.501Z,226
2023-04-17T04:58:48.187Z,224
2023-04-17T04:59:32.461Z,230
2023-04-17T05:00:09.002Z,233
2023-04-17T05:00:36.440Z,233
2023-04-17T05:01:08.457Z,233
2023-04-17T05:01:40.548Z,232
2023-04-17T05:02:12.432Z,232
2023-04-17T05:02:44.326Z,232
2023-04-17T05:03:16.318Z,232
2023-04-17T05:03:48.153Z,232
2023-04-17T05:04:20.374Z,240
2023-04-17T05:04:52.211Z,248
2023-04-17T05:05:24.658Z,248
2023-04-17T05:05:56.185Z,331
2023-04-17T05:06:28.183Z,26
2023-04-17T05:07:00.047Z,336
2023-04-17T05:07:31.980Z,283
2023-04-17T05:08:04.438Z,276
2023-04-17T05:08:36.017Z,307
2023-04-17T05:09:07.833Z,297
2023-04-17T05:09:40.002Z,276
2023-04-17T05:10:12.308Z,288
2023-04-17T05:10:44.017Z,269
2023-04-17T05:11:15.843Z,264
2023-04-17T05:11:47.986Z,264
2023-04-17T05:12:19.743Z,321
2023-04-17T05:12:52.026Z,269
2023-04-17T05:13:23.722Z,245
2023-04-17T05:13:55.698Z,241
2023-04-17T05:14:27.767Z,242
2023-04-17T05:14:59.934Z,242
2023-04-17T05:15:34.275Z,242
2023-04-17T05:16:04.314Z,242
2023-04-17T05:16:35.690Z,242
2023-04-17T05:17:09.115Z,242
2023-04-17T05:17:39.414Z,245
2023-04-17T05:17:55.720Z,245
2023-04-17T05:18:40.107Z,245
2023-04-17T05:19:11.912Z,245
2023-04-17T05:19:43.756Z,245
2023-04-17T05:20:16.439Z,214
2023-04-17T05:20:47.450Z,209
2023-04-17T05:21:19.494Z,218
2023-04-17T05:21:51.534Z,223
2023-04-17T05:22:23.316Z,223
2023-04-17T05:22:55.373Z,223
2023-04-17T05:23:27.409Z,223
2023-04-17T05:23:59.423Z,232
2023-04-17T05:24:31.363Z,232
2023-04-17T05:25:04.389Z,233
2023-04-17T05:25:35.266Z,233
2023-04-17T05:26:07.286Z,233
2023-04-17T05:26:39.352Z,233
2023-04-17T05:27:11.268Z,235
2023-04-17T05:27:43.276Z,253
2023-04-17T05:28:16.933Z,258
2023-04-17T05:28:47.127Z,263
2023-04-17T05:29:18.990Z,256
2023-04-17T05:29:51.244Z,241
2023-04-17T05:30:24.480Z,240
2023-04-17T05:30:54.963Z,239
2023-04-17T05:31:11.163Z,241
2023-04-17T05:31:43.327Z,243
2023-04-17T05:32:27.187Z,250
2023-04-17T05:32:59.136Z,255
2023-04-17T05:33:30.859Z,255
2023-04-17T05:34:04.225Z,253
2023-04-17T05:34:34.872Z,254
2023-04-17T05:35:07.161Z,253
2023-04-17T05:35:38.837Z,230
2023-04-17T05:35:56.445Z,232
2023-04-17T05:36:38.810Z,235
2023-04-17T05:37:11.048Z,235
2023-04-17T05:37:42.842Z,232
2023-04-17T05:38:14.672Z,234
2023-04-17T05:38:46.772Z,237
2023-04-17T05:39:18.642Z,245
2023-04-17T05:39:50.799Z,235
2023-04-17T05:40:24.755Z,223
2023-04-17T05:40:54.485Z,206
2023-04-17T05:41:10.980Z,172
2023-04-17T05:41:54.553Z,229
2023-04-17T05:42:26.689Z,224
2023-04-17T05:42:58.444Z,228
2023-04-17T05:43:30.609Z,231
2023-04-17T05:44:03.628Z,235
2023-04-17T05:44:34.826Z,147
2023-04-17T05:45:08.668Z,160
2023-04-17T05:45:38.412Z,188
2023-04-17T05:46:10.574Z,190
2023-04-17T05:46:42.543Z,233
2023-04-17T05:47:14.283Z,233
2023-04-17T05:47:46.587Z,209
2023-04-17T05:48:18.550Z,212
2023-04-17T05:48:50.433Z,208
2023-04-17T05:49:22.276Z,202
2023-04-17T05:49:54.278Z,202
2023-04-17T05:50:26.738Z,202
2023-04-17T05:50:58.231Z,202
2023-04-17T05:51:30.392Z,202
2023-04-17T05:52:03.485Z,201
2023-04-17T05:52:34.163Z,202
2023-04-17T05:53:06.166Z,199
2023-04-17T05:53:38.062Z,200
2023-04-17T05:53:54.220Z,200
2023-04-17T05:54:38.138Z,118
2023-04-17T05:55:12.048Z,61
2023-04-17T05:55:42.231Z,61
2023-04-17T05:56:14.024Z,61
2023-04-17T05:56:45.981Z,60
2023-04-17T05:57:18.131Z,60
2023-04-17T05:57:50.247Z,209
2023-04-17T05:58:24.445Z,189
2023-04-17T05:58:53.871Z,196
2023-04-17T05:59:25.861Z,154
2023-04-17T05:59:57.859Z,120
2023-04-17T06:00:36.951Z,128
2023-04-17T06:01:02.622Z,146
2023-04-17T06:01:33.708Z,235
2023-04-17T06:02:06.013Z,238
2023-04-17T06:02:37.760Z,238
2023-04-17T06:03:09.884Z,231
2023-04-17T06:03:42.254Z,235
2023-04-17T06:04:14.672Z,173
2023-04-17T06:04:45.795Z,173
2023-04-17T06:05:17.906Z,208
2023-04-17T06:05:49.682Z,209
2023-04-17T06:06:21.790Z,210
2023-04-17T06:06:53.925Z,213
2023-04-17T06:07:09.511Z,205
2023-04-17T06:07:41.703Z,133
2023-04-17T06:08:25.663Z,222
2023-04-17T06:08:57.358Z,245
2023-04-17T06:09:29.409Z,256
2023-04-17T06:10:02.617Z,259
2023-04-17T06:10:33.393Z,181
2023-04-17T06:11:05.540Z,173
2023-04-17T06:11:37.252Z,212
2023-04-17T06:11:54.010Z,109
2023-04-17T06:12:37.197Z,199
2023-04-17T06:13:09.403Z,179
2023-04-17T06:13:41.429Z,152
2023-04-17T06:14:13.272Z,129
2023-04-17T06:14:45.255Z,145
2023-04-17T06:15:24.566Z,105
2023-04-17T06:15:48.920Z,103
2023-04-17T06:16:21.279Z,118
2023-04-17T06:16:53.200Z,130
2023-04-17T06:17:25.169Z,138
2023-04-17T06:17:57.326Z,162
2023-04-17T06:18:29.078Z,158
2023-04-17T06:19:01.093Z,168
2023-04-17T06:19:33.142Z,101
2023-04-17T06:20:05.144Z,111
2023-04-17T06:20:39.383Z,132
2023-04-17T06:21:08.899Z,195
2023-04-17T06:21:43.413Z,124
2023-04-17T06:22:12.881Z,95
2023-04-17T06:22:44.822Z,103
2023-04-17T06:23:16.899Z,127
2023-04-17T06:23:48.846Z,128
2023-04-17T06:24:21.022Z,139
2023-04-17T06:24:54.708Z,113
2023-04-17T06:25:09.093Z,108
2023-04-17T06:25:40.603Z,110
2023-04-17T06:26:26.869Z,114
2023-04-17T06:26:56.861Z,118
2023-04-17T06:27:28.806Z,132
2023-04-17T06:28:01.018Z,112
2023-04-17T06:28:32.899Z,98
2023-04-17T06:29:04.934Z,97
2023-04-17T06:29:36.582Z,110
2023-04-17T06:29:52.754Z,154
2023-04-17T06:30:38.791Z,215
2023-04-17T06:31:08.643Z,252
2023-04-17T06:31:40.659Z,237
2023-04-17T06:32:12.611Z,152
2023-04-17T06:32:44.565Z,164
2023-04-17T06:33:16.407Z,230
2023-04-17T06:33:48.468Z,257
2023-04-17T06:34:20.506Z,123
2023-04-17T06:34:59.405Z,136
2023-04-17T06:35:24.635Z,134
2023-04-17T06:35:56.398Z,116
2023-04-17T06:36:28.212Z,115
2023-04-17T06:37:00.300Z,119
2023-04-17T06:37:32.564Z,125
2023-04-17T06:38:04.673Z,181
2023-04-17T06:38:36.100Z,181
2023-04-17T06:39:08.223Z,234
2023-04-17T06:39:40.111Z,234
2023-04-17T06:40:15.018Z,181
2023-04-17T06:40:44.291Z,181
2023-04-17T06:41:21.138Z,181
2023-04-17T06:41:48.197Z,181
2023-04-17T06:42:20.268Z,117
2023-04-17T06:42:52.195Z,153
2023-04-17T06:43:24.283Z,179
2023-04-17T06:43:56.979Z,179
2023-04-17T06:44:28.065Z,179
2023-04-17T06:44:59.989Z,179
2023-04-17T06:45:34.173Z,179
2023-04-17T06:46:04.764Z,198
2023-04-17T06:46:37.639Z,284
2023-04-17T06:47:07.834Z,318
2023-04-17T06:47:39.842Z,320
2023-04-17T06:48:11.947Z,121
2023-04-17T06:48:43.870Z,113
2023-04-17T06:49:15.676Z,74
2023-04-17T06:49:47.850Z,140
2023-04-17T06:50:20.050Z,224
2023-04-17T06:50:52.376Z,149
2023-04-17T06:51:23.833Z,137
2023-04-17T06:51:41.692Z,141
2023-04-17T06:52:11.991Z,241
2023-04-17T06:52:55.641Z,180
2023-04-17T06:53:27.690Z,222
2023-04-17T06:53:59.583Z,168
2023-04-17T06:54:31.484Z,219
2023-04-17T06:55:06.941Z,221
2023-04-17T06:55:35.544Z,221
2023-04-17T06:56:07.369Z,211
2023-04-17T06:56:41.618Z,212
2023-04-17T06:57:12.423Z,193
2023-04-17T06:57:43.606Z,194
2023-04-17T06:58:15.455Z,203
2023-04-17T06:58:47.415Z,219
2023-04-17T06:59:19.311Z,219
2023-04-17T06:59:51.481Z,219
2023-04-17T07:00:23.783Z,219
2023-04-17T07:00:39.459Z,226
2023-04-17T07:01:25.400Z,262
2023-04-17T07:01:39.610Z,129
2023-04-17T07:02:23.560Z,185
2023-04-17T07:02:55.348Z,175
2023-04-17T07:03:27.325Z,171
2023-04-17T07:03:59.253Z,178
2023-04-17T07:04:31.352Z,174
2023-04-17T07:05:04.605Z,108
2023-04-17T07:05:35.069Z,141
2023-04-17T07:05:56.545Z,73
2023-04-17T07:06:40.209Z,124
2023-04-17T07:07:07.104Z,127
2023-04-17T07:07:39.138Z,137
2023-04-17T07:08:11.065Z,141
2023-04-17T07:08:43.113Z,185
2023-04-17T07:09:15.151Z,195
2023-04-17T07:09:47.177Z,220
2023-04-17T07:10:19.174Z,174
2023-04-17T07:10:51.040Z,95
2023-04-17T07:11:07.017Z,125
2023-04-17T07:11:51.180Z,177
2023-04-17T07:12:23.161Z,141
2023-04-17T07:12:54.755Z,159
2023-04-17T07:13:26.701Z,254
2023-04-17T07:13:58.798Z,254
2023-04-17T07:14:30.843Z,253
2023-04-17T07:15:06.262Z,253